createdAt,value
2022-11-03T00:02:00.980Z,74.40
2022-11-03T00:04:28.177Z,74.40
2022-11-03T00:06:55.750Z,74.50
2022-11-03T00:09:23.956Z,74.50
2022-11-03T00:11:51.869Z,74.50
2022-11-03T00:14:19.453Z,74.60
2022-11-03T00:16:47.210Z,74.70
2022-11-03T00:19:16.252Z,74.70
2022-11-03T00:21:43.993Z,74.80
2022-11-03T00:24:11.145Z,74.90
2022-11-03T00:26:38.514Z,74.90
2022-11-03T00:29:10.658Z,74.80
2022-11-03T00:31:39.368Z,74.80
2022-11-03T00:34:07.861Z,74.70
2022-11-03T00:36:37.290Z,74.80
2022-11-03T00:39:05.260Z,74.80
2022-11-03T00:41:32.395Z,74.80
2022-11-03T00:43:59.646Z,74.90
2022-11-03T00:46:27.202Z,75.10
2022-11-03T00:48:54.066Z,75.20
2022-11-03T00:51:22.756Z,75.30
2022-11-03T00:53:52.406Z,75.40
2022-11-03T00:56:26.819Z,75.50
2022-11-03T00:58:54.844Z,75.80
2022-11-03T01:01:27.140Z,75.80
2022-11-03T01:04:14.828Z,75.80
2022-11-03T01:06:50.745Z,75.50
2022-11-03T01:09:24.978Z,75.60
2022-11-03T01:11:56.545Z,75.70
2022-11-03T01:14:24.390Z,75.70
2022-11-03T01:16:51.342Z,75.80
2022-11-03T01:19:18.212Z,75.60
2022-11-03T01:21:45.229Z,75.60
2022-11-03T01:24:12.181Z,75.60
2022-11-03T01:26:39.090Z,75.60
2022-11-03T01:29:05.984Z,75.60
2022-11-03T01:31:32.953Z,75.60
2022-11-03T01:33:59.854Z,75.60
2022-11-03T01:36:26.862Z,75.50
2022-11-03T01:38:55.996Z,75.50
2022-11-03T01:41:28.141Z,75.40
2022-11-03T01:44:07.414Z,75.50
2022-11-03T01:47:01.492Z,75.60
2022-11-03T01:49:53.299Z,75.60
2022-11-03T01:52:37.080Z,75.60
2022-11-03T01:55:15.911Z,75.70
2022-11-03T01:58:00.796Z,75.70
2022-11-03T02:00:27.784Z,75.70
2022-11-03T02:02:54.912Z,75.70
2022-11-03T02:05:25.838Z,75.80
2022-11-03T02:08:11.224Z,75.90
2022-11-03T02:10:38.736Z,75.90
2022-11-03T02:13:15.201Z,75.90
2022-11-03T02:15:42.855Z,76.00
2022-11-03T02:18:11.173Z,75.90
2022-11-03T02:20:40.153Z,75.90
2022-11-03T02:23:29.321Z,75.90
2022-11-03T02:25:58.945Z,76.10
2022-11-03T02:28:31.870Z,76.00
2022-11-03T02:31:07.764Z,76.10
2022-11-03T02:33:52.717Z,75.80
2022-11-03T02:36:40.455Z,76.00
2022-11-03T02:39:12.046Z,76.20
2022-11-03T02:41:40.331Z,76.10
2022-11-03T02:44:14.948Z,76.20
2022-11-03T02:46:44.193Z,76.20
2022-11-03T02:49:11.093Z,76.20
2022-11-03T02:51:38.093Z,76.20
2022-11-03T02:54:18.154Z,76.30
2022-11-03T02:57:00.425Z,76.40
2022-11-03T02:59:38.148Z,76.40
2022-11-03T03:02:15.200Z,76.50
2022-11-03T03:05:11.214Z,76.60
2022-11-03T03:07:41.293Z,76.70
2022-11-03T03:10:12.412Z,76.50
2022-11-03T03:12:47.688Z,76.50
2022-11-03T03:15:16.849Z,76.40
2022-11-03T03:17:57.973Z,76.40
2022-11-03T03:20:32.690Z,76.20
2022-11-03T03:23:06.212Z,76.30
2022-11-03T03:26:03.376Z,76.60
2022-11-03T03:28:40.629Z,76.70
2022-11-03T03:31:12.685Z,76.80
2022-11-03T03:33:43.514Z,76.90
2022-11-03T03:36:20.096Z,76.90
2022-11-03T03:38:54.499Z,76.90
2022-11-03T03:41:24.448Z,76.80
2022-11-03T03:43:57.356Z,76.70
2022-11-03T03:46:26.913Z,76.60
2022-11-03T03:48:54.071Z,76.50
2022-11-03T03:51:25.023Z,76.70
2022-11-03T03:53:53.305Z,76.80
2022-11-03T03:56:31.893Z,76.80
2022-11-03T03:58:58.819Z,76.90
2022-11-03T04:01:25.930Z,76.80
2022-11-03T04:03:52.865Z,76.80
2022-11-03T04:06:19.799Z,76.80
2022-11-03T04:08:46.679Z,77.00
2022-11-03T04:11:31.983Z,77.10
2022-11-03T04:14:17.506Z,77.20
2022-11-03T04:17:02.819Z,77.20
2022-11-03T04:19:48.208Z,77.30
2022-11-03T04:22:17.936Z,77.30
2022-11-03T04:24:50.569Z,77.30
2022-11-03T04:27:23.377Z,77.50
2022-11-03T04:29:50.527Z,77.60
2022-11-03T04:32:18.447Z,77.60
2022-11-03T04:34:47.238Z,77.60
2022-11-03T04:37:15.394Z,77.60
2022-11-03T04:42:21.424Z,77.30
2022-11-03T04:44:49.891Z,77.40
2022-11-03T04:47:18.327Z,77.30
2022-11-03T04:49:47.490Z,77.40
2022-11-03T04:52:22.101Z,77.40
2022-11-03T04:54:52.363Z,77.50
2022-11-03T04:57:19.263Z,77.60
2022-11-03T04:59:49.103Z,77.60
2022-11-03T05:02:19.902Z,77.70
2022-11-03T05:04:47.014Z,77.60
2022-11-03T05:07:31.005Z,77.70
2022-11-03T05:09:58.114Z,78.00
2022-11-03T05:12:25.536Z,78.00
2022-11-03T05:14:58.071Z,78.00
2022-11-03T05:17:28.411Z,78.10
2022-11-03T05:20:02.551Z,78.10
2022-11-03T05:22:36.748Z,78.10
2022-11-03T05:25:34.317Z,77.90
2022-11-03T05:28:01.279Z,77.80
2022-11-03T05:30:28.236Z,77.70
2022-11-03T05:32:55.150Z,77.80
2022-11-03T05:35:23.616Z,77.90
2022-11-03T05:37:51.392Z,78.00
2022-11-03T05:40:24.385Z,78.20
2022-11-03T05:42:53.104Z,78.20
2022-11-03T05:45:29.838Z,78.10
2022-11-03T05:47:57.838Z,78.20
2022-11-03T05:50:27.061Z,78.30
2022-11-03T05:53:08.401Z,78.40
2022-11-03T05:55:37.078Z,78.40
2022-11-03T05:58:14.442Z,78.40
2022-11-03T06:00:48.115Z,78.50
2022-11-03T06:03:21.481Z,78.50
2022-11-03T06:05:48.420Z,78.40
2022-11-03T06:10:56.912Z,79.10
2022-11-03T06:13:39.126Z,78.30
2022-11-03T06:16:27.279Z,78.40
2022-11-03T06:18:54.342Z,78.40
2022-11-03T06:21:24.519Z,78.50
2022-11-03T06:23:53.973Z,78.70
2022-11-03T06:26:24.183Z,78.70
2022-11-03T06:28:51.767Z,78.70
2022-11-03T06:31:31.754Z,78.80
2022-11-03T06:33:59.451Z,79.00
2022-11-03T06:36:35.689Z,79.30
2022-11-03T06:39:09.642Z,79.40
2022-11-03T06:41:37.538Z,79.50
2022-11-03T06:44:24.721Z,79.50
2022-11-03T06:47:06.930Z,79.40
2022-11-03T06:49:35.827Z,79.30
2022-11-03T06:52:16.861Z,79.30
2022-11-03T06:54:46.894Z,79.20
2022-11-03T06:57:17.138Z,79.10
2022-11-03T06:59:44.203Z,79.20
2022-11-03T07:02:48.383Z,79.20
2022-11-03T07:05:26.964Z,79.30
2022-11-03T07:08:15.894Z,79.20
2022-11-03T07:10:43.002Z,79.20
2022-11-03T07:13:23.508Z,79.10
2022-11-03T07:15:51.274Z,79.30
2022-11-03T07:18:27.534Z,79.20
2022-11-03T07:20:55.619Z,79.30
2022-11-03T07:23:29.384Z,79.20
2022-11-03T07:26:01.588Z,79.20
2022-11-03T07:28:36.216Z,79.30
2022-11-03T07:31:22.037Z,79.30
2022-11-03T07:33:49.533Z,79.50
2022-11-03T07:36:21.152Z,79.50
2022-11-03T07:38:52.826Z,79.60
2022-11-03T07:41:22.769Z,79.60
2022-11-03T07:43:56.789Z,79.70
2022-11-03T07:46:25.453Z,80.50
2022-11-03T07:48:57.485Z,79.60
2022-11-03T07:51:37.551Z,79.80
2022-11-03T07:54:10.615Z,79.80
2022-11-03T07:56:45.231Z,79.80
2022-11-03T07:59:20.241Z,79.80
2022-11-03T08:01:55.776Z,79.90
2022-11-03T08:04:27.408Z,80.00
2022-11-03T08:06:54.764Z,80.20
2022-11-03T08:09:21.843Z,80.20
2022-11-03T08:11:49.234Z,80.10
2022-11-03T08:14:16.387Z,80.10
2022-11-03T08:16:43.390Z,80.00
2022-11-03T08:19:10.263Z,80.00
2022-11-03T08:21:37.447Z,80.10
2022-11-03T08:24:05.696Z,80.20
2022-11-03T08:26:32.660Z,80.40
2022-11-03T08:28:59.544Z,80.60
2022-11-03T08:31:26.495Z,80.70
2022-11-03T08:33:53.416Z,80.60
2022-11-03T08:36:20.936Z,80.80
2022-11-03T08:38:47.944Z,81.00
2022-11-03T08:41:15.023Z,80.90
2022-11-03T08:43:41.904Z,80.80
2022-11-03T08:46:18.093Z,80.50
2022-11-03T08:48:46.436Z,80.40
2022-11-03T08:51:14.613Z,80.20
2022-11-03T08:53:45.199Z,80.30
2022-11-03T08:56:18.019Z,80.30
2022-11-03T08:58:47.575Z,80.30
2022-11-03T09:01:30.330Z,80.40
2022-11-03T09:05:28.055Z,80.50
2022-11-03T09:10:43.102Z,80.50
2022-11-03T09:13:10.530Z,80.90
2022-11-03T09:18:54.301Z,81.10
2022-11-03T09:22:02.344Z,81.10
2022-11-03T09:24:30.572Z,81.20
2022-11-03T09:27:02.019Z,81.00
2022-11-03T09:29:36.420Z,81.10
2022-11-03T09:32:12.982Z,81.00
2022-11-03T09:34:39.988Z,81.20
2022-11-03T09:37:06.940Z,81.10
2022-11-03T09:39:34.423Z,80.90
2022-11-03T09:42:03.781Z,80.90
2022-11-03T09:44:36.484Z,80.90
2022-11-03T09:47:06.777Z,80.90
2022-11-03T09:49:34.976Z,81.00
2022-11-03T09:52:03.900Z,80.90
2022-11-03T09:54:31.736Z,81.20
2022-11-03T09:57:09.419Z,81.30
2022-11-03T09:59:38.578Z,81.20
2022-11-03T10:02:24.381Z,81.20
2022-11-03T10:04:53.785Z,80.80
2022-11-03T10:07:52.046Z,80.80
2022-11-03T10:10:38.098Z,80.60
2022-11-03T10:17:02.930Z,80.40
2022-11-03T10:23:26.694Z,80.40
2022-11-03T10:26:10.035Z,80.40
2022-11-03T10:50:26.767Z,79.60
2022-11-03T10:58:13.058Z,79.10
2022-11-03T11:15:45.230Z,79.60
2022-11-03T11:18:32.267Z,79.60
2022-11-03T11:21:19.525Z,79.60
2022-11-03T11:23:48.629Z,79.60
2022-11-03T11:26:34.399Z,79.60
2022-11-03T11:29:11.604Z,79.60
2022-11-03T11:31:45.426Z,79.40
2022-11-03T11:34:17.402Z,79.40
2022-11-03T11:36:47.314Z,79.40
2022-11-03T11:51:10.763Z,78.90
2022-11-03T11:53:42.103Z,78.80
2022-11-03T11:56:14.416Z,78.90
2022-11-03T12:03:35.555Z,78.90
2022-11-03T12:06:42.359Z,78.90
2022-11-03T12:09:09.589Z,79.30
2022-11-03T12:11:47.699Z,79.30
2022-11-03T12:14:25.014Z,79.40
2022-11-03T12:16:53.285Z,79.20
2022-11-03T12:19:42.050Z,79.00
2022-11-03T12:22:26.005Z,79.10
2022-11-03T12:24:59.490Z,79.00
2022-11-03T12:27:26.474Z,78.90
2022-11-03T12:30:11.781Z,78.90
2022-11-03T12:32:38.869Z,79.00
2022-11-03T12:35:08.529Z,79.10
2022-11-03T12:37:37.513Z,79.10
2022-11-03T12:40:05.802Z,79.10
2022-11-03T12:42:32.797Z,79.10
2022-11-03T12:48:23.727Z,79.30
2022-11-03T12:51:36.290Z,79.60
2022-11-03T12:54:34.532Z,79.40
2022-11-03T13:08:13.672Z,79.20
2022-11-03T13:10:59.170Z,79.20
2022-11-03T13:13:56.679Z,79.10
2022-11-03T13:16:24.092Z,79.00
2022-11-03T13:18:54.907Z,78.80
2022-11-03T13:26:48.075Z,78.60
2022-11-03T13:32:57.563Z,78.40
2022-11-03T13:35:24.589Z,78.30
2022-11-03T13:44:47.711Z,78.30
2022-11-03T13:47:17.821Z,78.30
2022-11-03T13:50:14.553Z,78.40
2022-11-03T14:05:01.418Z,78.80
2022-11-03T14:07:30.103Z,78.90
2022-11-03T14:09:59.363Z,79.00
2022-11-03T14:12:32.470Z,78.90
2022-11-03T14:15:05.110Z,79.00
2022-11-03T14:17:33.025Z,79.10
2022-11-03T14:23:03.427Z,79.00
2022-11-03T14:30:04.416Z,78.80
2022-11-03T14:41:33.200Z,78.40
2022-11-03T14:44:03.721Z,78.50
2022-11-03T14:46:30.704Z,78.50
2022-11-03T14:49:30.653Z,78.30
2022-11-03T14:52:07.897Z,78.30
2022-11-03T14:54:36.399Z,78.20
2022-11-03T14:58:35.936Z,78.10
2022-11-03T15:01:15.208Z,78.10
2022-11-03T15:03:43.841Z,78.10
2022-11-03T15:06:50.056Z,78.20
2022-11-03T15:09:18.214Z,78.20
2022-11-03T15:11:46.172Z,78.00
2022-11-03T15:14:14.425Z,78.00
2022-11-03T15:16:48.215Z,78.00
2022-11-03T15:19:15.337Z,78.80
2022-11-03T15:21:42.569Z,77.90
2022-11-03T15:25:26.265Z,77.80
2022-11-03T15:28:00.364Z,78.00
2022-11-03T15:34:14.641Z,78.10
2022-11-03T15:44:38.200Z,78.30
2022-11-03T15:47:05.387Z,78.20
2022-11-03T15:49:32.407Z,78.30
2022-11-03T16:01:14.655Z,78.00
2022-11-03T16:03:42.256Z,77.60
2022-11-03T16:06:09.375Z,77.50
2022-11-03T16:08:47.231Z,77.10
2022-11-03T16:11:23.545Z,76.90
2022-11-03T16:14:00.735Z,76.80
2022-11-03T16:16:29.098Z,76.60
2022-11-03T16:23:17.002Z,76.00
2022-11-03T16:25:43.983Z,76.20
2022-11-03T16:32:35.138Z,75.90
2022-11-03T16:43:05.111Z,76.00
2022-11-03T16:45:37.242Z,76.10
2022-11-03T16:48:05.576Z,76.10
2022-11-03T16:50:34.630Z,76.00
2022-11-03T16:53:06.246Z,76.10
2022-11-03T16:55:33.551Z,76.30
2022-11-03T16:58:34.051Z,76.30
2022-11-03T17:01:07.210Z,76.40
2022-11-03T17:03:34.805Z,76.40
2022-11-03T17:10:18.666Z,76.40
2022-11-03T17:13:37.566Z,76.60
2022-11-03T17:16:06.964Z,76.50
2022-11-03T17:18:33.957Z,76.40
2022-11-03T17:21:01.365Z,76.40
2022-11-03T17:23:28.363Z,76.30
2022-11-03T17:26:01.397Z,77.00
2022-11-03T17:28:28.907Z,75.90
2022-11-03T17:30:55.871Z,75.50
2022-11-03T17:33:25.957Z,75.30
2022-11-03T17:35:53.205Z,75.30
2022-11-03T17:38:20.338Z,75.60
2022-11-03T17:40:48.628Z,75.80
2022-11-03T17:43:27.646Z,76.50
2022-11-03T17:45:54.768Z,76.80
2022-11-03T17:48:24.539Z,77.00
2022-11-03T17:50:55.102Z,77.40
2022-11-03T17:53:28.715Z,77.60
2022-11-03T17:56:27.950Z,77.70
2022-11-03T17:58:46.871Z,77.90
2022-11-03T18:01:25.135Z,77.90
2022-11-03T18:03:52.332Z,78.30
2022-11-03T18:06:22.091Z,78.50
2022-11-03T18:09:10.570Z,78.80
2022-11-03T18:12:20.379Z,78.80
2022-11-03T18:14:49.969Z,79.00
2022-11-03T18:17:31.074Z,79.30
2022-11-03T18:20:01.462Z,79.50
2022-11-03T18:22:30.819Z,79.90
2022-11-03T18:25:17.437Z,80.10
2022-11-03T18:28:11.196Z,80.60
2022-11-03T18:30:40.515Z,81.00
2022-11-03T18:33:17.971Z,81.10
2022-11-03T18:35:51.904Z,81.50
2022-11-03T18:38:23.979Z,81.60
2022-11-03T18:40:51.450Z,82.00
2022-11-03T18:43:23.995Z,82.10
2022-11-03T18:45:54.473Z,82.40
2022-11-03T18:48:22.190Z,82.40
2022-11-03T18:50:51.741Z,82.50
2022-11-03T18:53:22.541Z,82.90
2022-11-03T18:55:49.955Z,83.00
2022-11-03T18:58:18.068Z,83.00
2022-11-03T19:00:45.466Z,82.70
2022-11-03T19:03:18.310Z,82.80
2022-11-03T19:05:48.120Z,82.80
2022-11-03T19:08:38.531Z,83.80
2022-11-03T19:11:13.566Z,83.60
2022-11-03T19:13:47.876Z,83.70
2022-11-03T19:16:22.086Z,83.40
2022-11-03T19:18:49.456Z,83.40
2022-11-03T19:21:20.790Z,83.50
2022-11-03T19:23:49.094Z,84.00
2022-11-03T19:26:27.274Z,84.20
2022-11-03T19:29:02.020Z,84.60
2022-11-03T19:31:40.066Z,84.90
2022-11-03T19:34:12.775Z,85.00
2022-11-03T19:36:43.057Z,85.10
2022-11-03T19:39:27.013Z,84.90
2022-11-03T19:42:12.509Z,85.10
2022-11-03T19:44:39.900Z,85.00
2022-11-03T19:47:21.443Z,85.00
2022-11-03T19:49:49.170Z,84.90
2022-11-03T19:52:17.771Z,84.90
2022-11-03T19:54:48.148Z,85.00
2022-11-03T19:57:16.856Z,85.00
2022-11-03T19:59:44.661Z,85.20
2022-11-03T20:02:13.528Z,85.20
2022-11-03T20:04:46.858Z,85.50
2022-11-03T20:07:17.309Z,85.50
2022-11-03T20:09:44.489Z,85.60
2022-11-03T20:12:17.580Z,85.60
2022-11-03T20:14:44.920Z,85.60
2022-11-03T20:17:17.293Z,85.30
2022-11-03T20:19:44.524Z,85.20
2022-11-03T20:22:17.049Z,85.30
2022-11-03T20:24:46.319Z,85.50
2022-11-03T20:27:15.330Z,85.90
2022-11-03T20:33:16.322Z,85.90
2022-11-03T20:35:44.734Z,85.80
2022-11-03T20:38:13.583Z,85.70
2022-11-03T20:40:41.492Z,86.00
2022-11-03T20:43:23.343Z,86.20
2022-11-03T20:45:50.348Z,86.20
2022-11-03T20:48:17.562Z,86.00
2022-11-03T20:50:44.805Z,86.40
2022-11-03T20:53:17.268Z,86.40
2022-11-03T20:55:44.691Z,86.40
2022-11-03T20:58:17.359Z,86.40
2022-11-03T21:00:46.334Z,86.40
2022-11-03T21:03:53.674Z,86.40
2022-11-03T21:06:13.006Z,86.60
2022-11-03T21:08:40.091Z,86.60
2022-11-03T21:11:28.053Z,86.90
2022-11-03T21:13:56.852Z,87.00
2022-11-03T21:16:44.234Z,87.00
2022-11-03T21:20:01.318Z,87.10
2022-11-03T21:22:57.932Z,87.40
2022-11-03T21:25:25.461Z,87.50
2022-11-03T21:27:53.709Z,87.30
2022-11-03T21:30:21.755Z,87.50
2022-11-03T21:32:49.132Z,87.50
2022-11-03T21:35:20.463Z,87.50
2022-11-03T21:37:47.403Z,87.60
2022-11-03T21:40:14.719Z,87.60
2022-11-03T21:43:00.374Z,87.60
2022-11-03T21:45:27.379Z,87.80
2022-11-03T21:48:14.422Z,88.00
2022-11-03T21:50:42.179Z,88.10
2022-11-03T21:53:10.111Z,88.00
2022-11-03T21:55:37.465Z,88.10
2022-11-03T21:58:04.689Z,88.00
2022-11-03T22:00:32.357Z,88.00
2022-11-03T22:03:03.391Z,88.10
2022-11-03T22:05:30.557Z,88.20
2022-11-03T22:07:58.236Z,88.00
2022-11-03T22:10:25.307Z,88.00
2022-11-03T22:12:52.237Z,88.10
2022-11-03T22:15:37.797Z,88.00
2022-11-03T22:18:06.613Z,88.10
2022-11-03T22:20:54.307Z,88.30
2022-11-03T22:23:39.729Z,88.30
2022-11-03T22:26:29.002Z,88.30
2022-11-03T22:29:16.913Z,88.10
2022-11-03T22:31:44.102Z,88.10
2022-11-03T22:34:29.684Z,88.10
2022-11-03T22:36:56.609Z,88.20
2022-11-03T22:39:42.506Z,88.20
2022-11-03T22:42:31.100Z,88.10
2022-11-03T22:45:17.114Z,88.10
2022-11-03T22:47:44.290Z,88.00
2022-11-03T22:50:11.268Z,88.10
2022-11-03T22:52:38.321Z,88.20
2022-11-03T22:55:05.562Z,88.30
2022-11-03T22:57:32.626Z,88.30
2022-11-03T22:59:59.579Z,88.40
2022-11-03T23:02:26.647Z,88.40
2022-11-03T23:04:53.696Z,88.50
2022-11-03T23:07:20.684Z,88.40
2022-11-03T23:09:48.008Z,88.60
2022-11-03T23:12:15.471Z,88.60
2022-11-03T23:15:00.973Z,88.60
2022-11-03T23:17:48.511Z,88.40
2022-11-03T23:20:33.914Z,88.50
2022-11-03T23:23:00.965Z,88.50
2022-11-03T23:25:27.871Z,88.40
2022-11-03T23:27:54.888Z,88.40
2022-11-03T23:30:21.859Z,88.60
2022-11-03T23:32:48.813Z,88.50
2022-11-03T23:35:16.951Z,88.30
2022-11-03T23:37:43.878Z,88.30
2022-11-03T23:40:11.593Z,88.30
2022-11-03T23:42:38.535Z,88.30
2022-11-03T23:45:24.261Z,88.30
2022-11-03T23:48:10.332Z,88.00
2022-11-03T23:50:38.840Z,87.90
2022-11-03T23:53:05.800Z,87.90
2022-11-03T23:55:53.883Z,88.00
2022-11-03T23:58:21.662Z,88.00
